ADDS TAF Data INFO
IDs: Format: Raw Decoded Include METARs

Data at: 1328 UTC 25 Feb 2018

KDHT 251253Z AUTO 30007KT 10SM CLR M06/M17 A2992 RMK AO2 SLP142 T10611167

KDHT 251128Z 2512/2612 24012KT P6SM SKC
  FM251700 27015KT P6SM SKC
  FM252100 30012KT P6SM SKC
  FM260300 VRB06KT P6SM SKC
  FM260900 20007KT P6SM SKC